Terminal Aerodrome Forecast
Issued by NWS

Home | Current Version | Previous Version | Text Only | Print | Product List | Glossary On
Versions: 1 2 3 4 5 6 7 8 9 10 11 12 13 14
000
FTUS44 KSJT 172300
TAFBBD
TAF
KBBD 172331Z 1800/1824 VRB03KT P6SM VCSH BKN050
     FM180300 VRB05KT P6SM SCT050 BKN100
     FM180900 15005KT P6SM SCT025
     FM181500 12008KT P6SM SCT050=

USA.gov is the U.S. government's official web portal to all federal, state and local government web resources and services.